createdAt,value
2018-11-23T00:04:28.054Z,10.30
2018-11-23T00:06:56.199Z,10.73
2018-11-23T00:09:24.787Z,11.17
2018-11-23T00:11:52.749Z,11.20
2018-11-23T00:14:21.191Z,11.28
2018-11-23T00:16:49.197Z,10.78
2018-11-23T00:19:17.566Z,10.83
2018-11-23T00:24:12.701Z,10.47
2018-11-23T00:27:44.814Z,10.03
2018-11-23T00:30:17.633Z,11.30
2018-11-23T00:32:45.770Z,11.03
2018-11-23T00:37:43.053Z,10.80
2018-11-23T00:42:40.855Z,10.53
2018-11-23T00:47:37.819Z,9.63
2018-11-23T00:50:08.586Z,9.70
2018-11-23T00:52:36.575Z,9.77
2018-11-23T00:57:32.474Z,10.05
2018-11-23T01:00:00.303Z,8.93
2018-11-23T01:02:28.058Z,8.93
2018-11-23T01:04:56.020Z,9.80
2018-11-23T01:07:23.946Z,9.80
2018-11-23T01:09:51.850Z,10.20
2018-11-23T01:12:19.693Z,10.40
2018-11-23T01:14:47.742Z,10.50
2018-11-23T01:17:15.699Z,10.80
2018-11-23T01:19:43.603Z,10.43
2018-11-23T01:22:11.663Z,10.75
2018-11-23T01:24:39.492Z,10.67
2018-11-23T01:27:07.303Z,10.87
2018-11-23T01:29:35.043Z,10.03
2018-11-23T01:32:02.875Z,9.63
2018-11-23T01:34:30.661Z,9.50
2018-11-23T01:36:58.639Z,8.83
2018-11-23T01:39:26.501Z,10.10
2018-11-23T01:41:54.499Z,8.70
2018-11-23T01:44:22.299Z,9.48
2018-11-23T01:46:50.012Z,9.03
2018-11-23T01:51:45.209Z,10.30
2018-11-23T01:54:12.916Z,10.63
2018-11-23T01:56:40.670Z,10.83
2018-11-23T01:59:08.725Z,10.27
2018-11-23T02:01:36.583Z,11.00
2018-11-23T02:04:04.478Z,10.90
2018-11-23T02:06:32.392Z,10.77
2018-11-23T02:09:00.063Z,10.80
2018-11-23T02:12:38.206Z,9.73
2018-11-23T02:15:11.453Z,9.93
2018-11-23T02:17:39.200Z,9.87
2018-11-23T02:20:09.211Z,10.20
2018-11-23T02:22:36.994Z,9.37
2018-11-23T02:25:05.185Z,10.23
2018-11-23T02:30:00.063Z,10.73
2018-11-23T02:32:27.976Z,9.90
2018-11-23T02:34:55.659Z,8.53
2018-11-23T02:37:23.368Z,8.60
2018-11-23T02:39:51.300Z,9.93
2018-11-23T02:42:18.983Z,9.47
2018-11-23T02:44:46.659Z,8.53
2018-11-23T02:47:14.303Z,8.40
2018-11-23T02:49:41.991Z,9.13
2018-11-23T02:54:37.003Z,9.53
2018-11-23T02:57:05.307Z,9.68
2018-11-23T02:59:32.990Z,9.10
2018-11-23T03:02:00.783Z,10.13
2018-11-23T03:04:28.607Z,10.00
2018-11-23T03:06:56.455Z,10.07
2018-11-23T03:09:24.186Z,10.57
2018-11-23T03:11:51.760Z,10.70
2018-11-23T03:14:19.596Z,10.63
2018-11-23T03:16:47.312Z,9.60
2018-11-23T03:19:14.986Z,8.60
2018-11-23T03:21:42.673Z,8.58
2018-11-23T03:24:10.584Z,8.10
2018-11-23T03:26:38.304Z,8.30
2018-11-23T03:29:06.003Z,8.80
2018-11-23T03:31:33.671Z,9.03
2018-11-23T03:34:01.324Z,9.03
2018-11-23T03:36:29.035Z,8.40
2018-11-23T03:41:23.967Z,8.83
2018-11-23T03:43:51.764Z,9.50
2018-11-23T03:46:19.559Z,9.93
2018-11-23T03:48:47.238Z,9.85
2018-11-23T03:51:14.763Z,9.90
2018-11-23T03:53:42.562Z,10.27
2018-11-23T03:56:10.315Z,11.00
2018-11-23T03:58:37.955Z,9.73
2018-11-23T04:01:06.070Z,9.07
2018-11-23T04:03:33.763Z,8.53
2018-11-23T04:06:01.554Z,8.47
2018-11-23T04:08:29.221Z,9.18
2018-11-23T04:10:56.795Z,8.40
2018-11-23T04:15:51.680Z,8.70
2018-11-23T04:18:19.563Z,8.20
2018-11-23T04:20:51.938Z,8.60
2018-11-23T04:23:19.649Z,9.83
2018-11-23T04:25:47.311Z,9.18
2018-11-23T04:28:15.175Z,8.93
2018-11-23T04:30:42.768Z,9.37
2018-11-23T04:33:10.600Z,10.00
2018-11-23T04:35:38.438Z,9.57
2018-11-23T04:38:06.071Z,10.40
2018-11-23T04:40:33.930Z,10.07
2018-11-23T04:43:01.762Z,9.63
2018-11-23T04:45:29.603Z,8.30
2018-11-23T04:47:57.314Z,8.23
2018-11-23T04:50:25.046Z,8.00
2018-11-23T04:55:20.044Z,8.03
2018-11-23T04:57:53.609Z,7.50
2018-11-23T05:00:16.821Z,7.77
2018-11-23T05:02:45.508Z,7.57
2018-11-23T05:05:13.574Z,8.00
2018-11-23T05:07:42.472Z,8.83
2018-11-23T05:10:12.027Z,8.70
2018-11-23T05:15:08.341Z,9.20
2018-11-23T05:17:36.217Z,10.13
2018-11-23T05:20:04.586Z,10.53
2018-11-23T05:22:32.247Z,8.70
2018-11-23T05:24:59.772Z,8.73
2018-11-23T05:27:27.571Z,8.23
2018-11-23T05:29:55.210Z,8.07
2018-11-23T05:32:22.871Z,8.13
2018-11-23T05:39:44.971Z,8.03
2018-11-23T05:42:12.712Z,8.18
2018-11-23T05:44:40.530Z,8.37
2018-11-23T05:47:08.315Z,8.63
2018-11-23T05:49:35.969Z,8.03
2018-11-23T05:52:03.696Z,8.87
2018-11-23T05:54:31.326Z,8.60
2018-11-23T05:56:59.008Z,9.43
2018-11-23T05:59:26.680Z,9.63
2018-11-23T06:01:54.496Z,10.30
2018-11-23T06:04:22.231Z,10.58
2018-11-23T06:06:49.895Z,10.75
2018-11-23T06:09:17.637Z,9.30
2018-11-23T06:11:46.201Z,9.03
2018-11-23T06:14:13.851Z,7.63
2018-11-23T06:16:41.695Z,8.18
2018-11-23T06:21:36.954Z,7.87
2018-11-23T06:24:05.189Z,7.45
2018-11-23T06:26:33.208Z,8.10
2018-11-23T06:29:00.796Z,8.35
2018-11-23T06:33:55.764Z,8.33
2018-11-23T06:36:23.617Z,9.73
2018-11-23T06:39:12.139Z,8.25
2018-11-23T06:41:39.767Z,9.37
2018-11-23T06:44:07.712Z,9.57
2018-11-23T06:46:35.542Z,8.78
2018-11-23T06:49:03.219Z,9.13
2018-11-23T06:51:31.426Z,8.70
2018-11-23T06:53:59.465Z,7.80
2018-11-23T06:56:27.292Z,8.40
2018-11-23T06:58:55.075Z,8.47
2018-11-23T07:03:50.387Z,8.07
2018-11-23T07:06:18.518Z,8.43
2018-11-23T07:08:52.204Z,7.67
2018-11-23T07:11:13.998Z,7.23
2018-11-23T07:13:41.875Z,9.23
2018-11-23T07:18:37.063Z,9.10
2018-11-23T07:21:05.224Z,9.77
2018-11-23T07:23:33.021Z,9.23
2018-11-23T07:26:00.766Z,9.15
2018-11-23T07:28:28.761Z,9.33
2018-11-23T07:31:02.102Z,9.57
2018-11-23T07:33:24.590Z,8.63
2018-11-23T07:35:52.406Z,8.67
2018-11-23T07:41:05.432Z,8.37
2018-11-23T07:43:33.219Z,8.63
2018-11-23T07:46:00.986Z,7.77
2018-11-23T07:48:28.675Z,8.03
2018-11-23T07:50:56.518Z,8.17
2018-11-23T07:53:24.188Z,8.57
2018-11-23T07:55:52.352Z,9.33
2018-11-23T07:58:20.007Z,9.63
2018-11-23T08:00:47.792Z,9.55
2018-11-23T08:03:15.590Z,9.80
2018-11-23T08:05:43.475Z,8.83
2018-11-23T08:08:11.203Z,9.20
2018-11-23T08:10:38.354Z,9.17
2018-11-23T08:13:06.070Z,7.67
2018-11-23T08:15:34.033Z,8.10
2018-11-23T08:18:02.385Z,8.27
2018-11-23T08:20:30.064Z,7.40
2018-11-23T08:25:25.968Z,8.17
2018-11-23T08:27:54.875Z,8.60
2018-11-23T08:30:25.027Z,7.57
2018-11-23T08:35:20.503Z,7.83
2018-11-23T08:37:48.205Z,7.50
2018-11-23T08:40:22.647Z,8.63
2018-11-23T08:42:51.023Z,9.10
2018-11-23T08:47:47.684Z,8.93
2018-11-23T08:50:18.026Z,8.80
2018-11-23T08:55:13.765Z,8.00
2018-11-23T08:57:41.827Z,7.93
2018-11-23T09:00:14.588Z,7.93
2018-11-23T09:02:43.051Z,7.37
2018-11-23T09:07:38.078Z,7.87
2018-11-23T09:10:09.023Z,8.45
2018-11-23T09:15:05.578Z,9.27
2018-11-23T09:17:33.294Z,9.13
2018-11-23T09:20:01.011Z,9.13
2018-11-23T09:22:28.951Z,8.38
2018-11-23T09:24:56.683Z,9.10
2018-11-23T09:27:24.538Z,9.08
2018-11-23T09:29:52.231Z,9.20
2018-11-23T09:32:20.035Z,8.80
2018-11-23T09:34:48.015Z,8.17
2018-11-23T09:37:15.943Z,8.37
2018-11-23T09:42:11.228Z,7.53
2018-11-23T09:44:39.015Z,7.40
2018-11-23T09:47:10.172Z,7.33
2018-11-23T09:49:34.774Z,7.30
2018-11-23T09:52:02.591Z,7.50
2018-11-23T09:54:30.366Z,8.17
2018-11-23T09:59:25.591Z,8.83
2018-11-23T10:01:53.416Z,8.47
2018-11-23T10:06:48.319Z,7.60
2018-11-23T10:09:16.006Z,7.37
2018-11-23T10:11:43.817Z,8.27
2018-11-23T10:14:11.594Z,8.47
2018-11-23T10:16:39.464Z,8.27
2018-11-23T10:19:12.627Z,7.17
2018-11-23T10:24:08.712Z,7.80
2018-11-23T10:26:36.591Z,7.77
2018-11-23T10:29:04.718Z,7.67
2018-11-23T10:31:32.565Z,6.97
2018-11-23T10:34:00.227Z,6.97
2018-11-23T10:36:28.147Z,7.13
2018-11-23T10:38:55.771Z,7.13
2018-11-23T10:43:50.825Z,11.10
2018-11-23T10:46:18.606Z,9.87
2018-11-23T10:48:46.519Z,7.12
2018-11-23T10:51:14.206Z,7.77
2018-11-23T10:53:41.859Z,8.33
2018-11-23T10:58:35.471Z,7.05
2018-11-23T11:01:08.891Z,7.40
2018-11-23T11:03:41.309Z,7.60
2018-11-23T11:06:14.794Z,7.07
2018-11-23T11:08:42.618Z,7.10
2018-11-23T11:11:13.564Z,6.95
2018-11-23T11:13:38.215Z,7.63
2018-11-23T11:16:05.997Z,6.97
2018-11-23T11:21:01.081Z,8.90
2018-11-23T11:23:28.815Z,8.98
2018-11-23T11:25:56.675Z,7.90
2018-11-23T11:28:24.591Z,8.13
2018-11-23T11:30:52.455Z,8.27
2018-11-23T11:33:20.395Z,8.95
2018-11-23T11:35:48.071Z,8.77
2018-11-23T11:38:15.966Z,8.55
2018-11-23T11:40:43.794Z,8.07
2018-11-23T11:44:07.201Z,7.92
2018-11-23T11:46:34.846Z,8.17
2018-11-23T11:49:02.623Z,8.03
2018-11-23T11:51:30.415Z,8.73
2018-11-23T11:53:58.567Z,7.90
2018-11-23T11:56:26.201Z,9.23
2018-11-23T11:58:53.927Z,8.57
2018-11-23T12:03:50.233Z,8.67
2018-11-23T12:06:17.765Z,8.33
2018-11-23T12:08:45.893Z,8.50
2018-11-23T12:11:13.635Z,7.05
2018-11-23T12:13:41.306Z,8.07
2018-11-23T12:18:36.369Z,6.97
2018-11-23T12:21:04.215Z,6.93
2018-11-23T12:23:32.156Z,7.70
2018-11-23T12:25:59.916Z,7.13
2018-11-23T12:28:27.700Z,8.40
2018-11-23T12:30:55.594Z,7.37
2018-11-23T12:33:23.217Z,7.60
2018-11-23T12:35:50.775Z,7.50
2018-11-23T12:40:45.919Z,7.30
2018-11-23T12:43:13.687Z,8.70
2018-11-23T12:45:41.751Z,8.37
2018-11-23T12:48:09.624Z,8.20
2018-11-23T12:50:37.609Z,8.17
2018-11-23T12:53:06.531Z,7.60
2018-11-23T12:55:33.727Z,8.20
2018-11-23T12:58:01.550Z,7.92
2018-11-23T13:00:29.571Z,7.57
2018-11-23T13:02:58.647Z,7.33
2018-11-23T13:05:27.212Z,7.17
2018-11-23T13:07:55.855Z,7.20
2018-11-23T13:10:24.462Z,7.57
2018-11-23T13:12:52.954Z,7.10
2018-11-23T13:15:22.855Z,7.40
2018-11-23T13:17:52.786Z,7.60
2018-11-23T13:20:21.919Z,7.30
2018-11-23T13:22:51.050Z,7.23
2018-11-23T13:28:56.551Z,7.67
2018-11-23T13:31:24.376Z,7.00
2018-11-23T13:33:53.030Z,7.40
2018-11-23T13:36:21.065Z,6.90
2018-11-23T13:38:48.856Z,6.93
2018-11-23T13:41:16.895Z,7.15
2018-11-23T13:43:44.643Z,7.47
2018-11-23T13:46:12.328Z,7.50
2018-11-23T13:48:40.306Z,7.10
2018-11-23T13:51:08.009Z,6.60
2018-11-23T13:55:33.853Z,7.95
2018-11-23T13:58:01.963Z,9.47
2018-11-23T14:00:30.197Z,8.00
2018-11-23T14:02:58.184Z,6.53
2018-11-23T14:05:27.600Z,5.83
2018-11-23T14:07:57.003Z,7.33
2018-11-23T14:12:53.557Z,6.37
2018-11-23T14:15:22.944Z,7.07
2018-11-23T14:20:19.610Z,6.37
2018-11-23T14:22:47.883Z,6.33
2018-11-23T14:25:17.283Z,8.37
2018-11-23T14:27:45.382Z,7.77
2018-11-23T14:30:15.699Z,7.93
2018-11-23T14:32:43.751Z,8.53
2018-11-23T14:35:13.307Z,8.37
2018-11-23T14:37:41.440Z,7.93
2018-11-23T14:40:10.054Z,8.00
2018-11-23T14:42:38.594Z,8.10
2018-11-23T14:45:17.435Z,7.80
2018-11-23T14:47:45.454Z,8.17
2018-11-23T14:50:15.962Z,7.53
2018-11-23T14:52:44.809Z,6.90
2018-11-23T14:55:12.766Z,7.10
2018-11-23T14:57:41.561Z,7.00
2018-11-23T15:00:26.015Z,7.00
2018-11-23T15:05:22.318Z,7.07
2018-11-23T15:07:50.607Z,6.30
2018-11-23T15:10:20.596Z,6.80
2018-11-23T15:12:50.607Z,6.87
2018-11-23T15:15:20.470Z,7.13
2018-11-23T15:17:49.628Z,6.60
2018-11-23T15:20:20.433Z,6.20
2018-11-23T15:22:51.323Z,6.50
2018-11-23T15:25:20.324Z,6.00
2018-11-23T15:27:48.564Z,6.13
2018-11-23T15:30:20.224Z,5.70
2018-11-23T15:32:48.724Z,6.13
2018-11-23T15:37:45.667Z,5.73
2018-11-23T15:40:20.324Z,5.77
2018-11-23T15:42:49.810Z,6.23
2018-11-23T15:45:19.485Z,5.87
2018-11-23T15:47:47.789Z,7.33
2018-11-23T15:50:18.690Z,8.98
2018-11-23T15:52:47.643Z,7.67
2018-11-23T15:55:19.341Z,7.77
2018-11-23T15:57:48.549Z,7.63
2018-11-23T16:03:00.014Z,6.83
2018-11-23T16:05:28.006Z,6.70
2018-11-23T16:07:58.209Z,6.42
2018-11-23T16:10:28.303Z,7.13
2018-11-23T16:12:57.519Z,10.33
2018-11-23T16:15:26.503Z,9.77
2018-11-23T16:17:54.590Z,9.50
2018-11-23T16:20:25.301Z,11.37
2018-11-23T16:22:54.722Z,10.07
2018-11-23T16:25:25.755Z,7.90
2018-11-23T16:27:55.306Z,7.60
2018-11-23T16:30:24.236Z,8.17
2018-11-23T16:32:53.519Z,8.60
2018-11-23T16:35:26.603Z,7.67
2018-11-23T16:37:55.310Z,7.77
2018-11-23T16:40:24.429Z,8.00
2018-11-23T16:42:52.909Z,6.80
2018-11-23T16:47:51.523Z,6.50
2018-11-23T16:50:19.306Z,6.90
2018-11-23T16:52:47.996Z,6.25
2018-11-23T16:55:16.826Z,6.57
2018-11-23T16:57:46.006Z,6.97
2018-11-23T17:02:45.436Z,7.63
2018-11-23T17:05:14.470Z,7.43
2018-11-23T17:07:42.218Z,8.03
2018-11-23T17:10:12.303Z,8.15
2018-11-23T17:12:40.494Z,7.93
2018-11-23T17:15:10.540Z,7.93
2018-11-23T17:17:38.516Z,8.60
2018-11-23T17:20:10.875Z,9.13
2018-11-23T17:22:38.842Z,9.87
2018-11-23T17:25:08.378Z,11.63
2018-11-23T17:27:36.051Z,11.03
2018-11-23T17:30:04.585Z,11.03
2018-11-23T17:32:32.301Z,24.03
2018-11-23T17:34:59.993Z,14.30
2018-11-23T17:37:27.735Z,12.27
2018-11-23T17:39:55.581Z,14.27
2018-11-23T17:42:23.686Z,15.20
2018-11-23T17:44:51.672Z,15.85
2018-11-23T17:47:19.407Z,15.70
2018-11-23T17:49:47.203Z,15.63
2018-11-23T17:52:14.751Z,13.93
2018-11-23T17:54:42.701Z,13.20
2018-11-23T17:59:42.777Z,14.57
2018-11-23T18:02:10.715Z,13.87
2018-11-23T18:04:38.535Z,13.17
2018-11-23T18:07:06.500Z,13.20
2018-11-23T18:09:36.178Z,15.63
2018-11-23T18:12:03.947Z,13.93
2018-11-23T18:14:31.763Z,13.43
2018-11-23T18:19:26.663Z,13.37
2018-11-23T18:21:54.466Z,13.23
2018-11-23T18:24:22.197Z,13.30
2018-11-23T18:26:49.995Z,13.57
2018-11-23T18:29:17.800Z,14.85
2018-11-23T18:31:45.613Z,13.73
2018-11-23T18:34:13.543Z,14.40
2018-11-23T18:36:41.203Z,14.30
2018-11-23T18:39:09.187Z,14.23
2018-11-23T18:41:37.597Z,14.13
2018-11-23T18:44:05.822Z,14.13
2018-11-23T18:46:33.828Z,13.93
2018-11-23T18:49:01.717Z,13.85
2018-11-23T18:51:29.691Z,14.13
2018-11-23T18:56:24.804Z,14.73
2018-11-23T18:58:53.532Z,13.80
2018-11-23T19:01:22.032Z,14.33
2018-11-23T19:03:50.858Z,13.60
2018-11-23T19:08:47.457Z,11.53
2018-11-23T19:11:15.585Z,11.97
2018-11-23T19:13:44.063Z,12.00
2018-11-23T19:16:12.434Z,12.58
2018-11-23T19:18:40.631Z,12.67
2018-11-23T19:21:08.903Z,11.80
2018-11-23T19:23:37.816Z,11.60
2018-11-23T19:26:06.529Z,11.08
2018-11-23T19:28:35.039Z,11.17
2018-11-23T19:31:03.545Z,12.03
2018-11-23T19:36:02.215Z,11.43
2018-11-23T19:38:30.711Z,10.60
2018-11-23T19:40:58.886Z,11.13
2018-11-23T19:43:27.292Z,11.17
2018-11-23T19:45:56.198Z,11.37
2018-11-23T19:48:24.906Z,10.57
2018-11-23T19:50:53.197Z,10.70
2018-11-23T19:53:21.539Z,11.00
2018-11-23T19:55:49.976Z,10.00
2018-11-23T19:58:18.624Z,9.60
2018-11-23T20:00:47.226Z,10.97
2018-11-23T20:03:15.339Z,9.27
2018-11-23T20:05:44.183Z,9.37
2018-11-23T20:08:12.583Z,11.97
2018-11-23T20:10:40.877Z,10.47
2018-11-23T20:13:09.459Z,10.73
2018-11-23T20:15:37.919Z,10.67
2018-11-23T20:18:07.376Z,10.80
2018-11-23T20:20:35.538Z,9.70
2018-11-23T20:23:04.049Z,9.33
2018-11-23T20:25:32.325Z,9.83
2018-11-23T20:28:00.576Z,9.57
2018-11-23T20:30:29.230Z,10.00
2018-11-23T20:32:57.540Z,9.00
2018-11-23T20:38:06.815Z,10.10
2018-11-23T20:43:01.815Z,10.17
2018-11-23T20:45:29.696Z,9.30
2018-11-23T20:47:57.574Z,9.10
2018-11-23T20:50:25.314Z,10.13
2018-11-23T20:52:53.018Z,11.07
2018-11-23T20:57:49.659Z,10.07
2018-11-23T21:00:19.315Z,9.40
2018-11-23T21:02:48.591Z,10.20
2018-11-23T21:05:17.786Z,8.47
2018-11-23T21:07:45.648Z,8.60
2018-11-23T21:10:20.297Z,9.47
2018-11-23T21:15:31.580Z,8.07
2018-11-23T21:18:02.657Z,8.07
2018-11-23T21:20:30.554Z,9.10
2018-11-23T21:22:58.488Z,9.97
2018-11-23T21:25:26.182Z,10.10
2018-11-23T21:30:22.603Z,8.93
2018-11-23T21:32:51.309Z,9.80
2018-11-23T21:35:19.156Z,9.50
2018-11-23T21:37:46.763Z,9.43
2018-11-23T21:40:15.418Z,9.43
2018-11-23T21:42:43.238Z,8.40
2018-11-23T21:47:39.597Z,8.17
2018-11-23T21:50:11.583Z,7.77
2018-11-23T21:52:39.303Z,8.68
2018-11-23T21:57:37.459Z,7.30
2018-11-23T22:00:07.593Z,9.57
2018-11-23T22:02:35.308Z,9.03
2018-11-23T22:07:30.302Z,8.00
2018-11-23T22:09:57.997Z,6.80
2018-11-23T22:12:25.751Z,8.77
2018-11-23T22:14:53.663Z,7.93
2018-11-23T22:17:21.472Z,7.92
2018-11-23T22:19:49.307Z,8.03
2018-11-23T22:22:17.195Z,7.40
2018-11-23T22:24:45.187Z,7.13
2018-11-23T22:27:12.948Z,7.00
2018-11-23T22:29:40.650Z,7.35
2018-11-23T22:32:08.504Z,7.00
2018-11-23T22:34:36.307Z,6.67
2018-11-23T22:37:04.195Z,7.58
2018-11-23T22:41:59.034Z,6.97
2018-11-23T22:46:54.208Z,6.97
2018-11-23T22:49:22.194Z,7.13
2018-11-23T22:51:50.011Z,7.03
2018-11-23T22:54:18.003Z,7.57
2018-11-23T22:56:45.959Z,7.27
2018-11-23T23:01:41.018Z,7.33
2018-11-23T23:04:08.752Z,6.95
2018-11-23T23:06:36.614Z,6.07
2018-11-23T23:09:08.066Z,6.77
2018-11-23T23:11:36.586Z,6.37
2018-11-23T23:14:04.639Z,7.47
2018-11-23T23:16:32.307Z,6.20
2018-11-23T23:19:00.012Z,7.00
2018-11-23T23:21:27.747Z,6.55
2018-11-23T23:23:55.567Z,7.10
2018-11-23T23:26:23.307Z,6.53
2018-11-23T23:28:51.030Z,7.37
2018-11-23T23:33:46.009Z,7.10
2018-11-23T23:36:13.763Z,9.00
2018-11-23T23:38:41.579Z,7.53
2018-11-23T23:41:09.456Z,7.20
2018-11-23T23:43:37.558Z,8.10
2018-11-23T23:46:05.226Z,7.43
2018-11-23T23:48:33.041Z,6.77
2018-11-23T23:51:00.909Z,7.30
2018-11-23T23:53:28.639Z,6.27
2018-11-23T23:55:56.767Z,5.83
